Time;durP1;ratioP1;P1;durP2;ratioP2;P2;SDS_P1;SDS_P2;PMS_P1;PMS_P2;Temp;Humidity;BMP_temperature;BMP_pressure;BME280_temperature;BME280_humidity;BME280_pressure;Samples;Min_cycle;Max_cycle;Signal;HPM_P1;HPM_P2
2022/08/05 00:01:12;;;;;;;;;;;26.50;74.80;;;;;;4978876;28;19957;-78
2022/08/05 00:03:38;;;;;;;;;;;26.50;75.00;;;;;;4982753;28;20673;-79
2022/08/05 00:06:06;;;;;;;;;;;26.50;74.90;;;;;;4983041;28;19933;-80
2022/08/05 00:08:33;;;;;;;;;;;26.40;74.90;;;;;;4979030;28;20181;-80
2022/08/05 00:11:02;;;;;;;;;;;26.40;74.90;;;;;;4980584;28;19930;-80
2022/08/05 00:13:31;;;;;;;;;;;26.40;75.00;;;;;;4978641;28;19926;-80
2022/08/05 00:15:57;;;;;;;;;;;26.30;75.00;;;;;;4983416;28;19933;-80
2022/08/05 00:18:24;;;;;;;;;;;26.30;75.00;;;;;;4977797;28;20064;-80
2022/08/05 00:20:51;;;;;;;;;;;26.30;75.10;;;;;;4984285;28;19979;-81
2022/08/05 00:23:18;;;;;;;;;;;26.30;75.10;;;;;;4979465;28;20166;-79
2022/08/05 00:25:45;;;;;;;;;;;26.20;75.10;;;;;;4982007;28;19934;-80
2022/08/05 00:28:14;;;;;;;;;;;26.20;75.20;;;;;;4976982;28;19926;-79
2022/08/05 00:30:40;;;;;;;;;;;26.20;75.20;;;;;;4980078;28;20412;-78
2022/08/05 00:33:07;;;;;;;;;;;26.20;75.20;;;;;;4982578;28;19926;-79
2022/08/05 00:35:34;;;;;;;;;;;26.20;75.30;;;;;;4977313;28;19944;-78
2022/08/05 00:38:01;;;;;;;;;;;26.10;75.40;;;;;;4978028;28;19941;-80
2022/08/05 00:40:28;;;;;;;;;;;26.10;75.40;;;;;;4978984;28;20073;-80
2022/08/05 00:42:55;;;;;;;;;;;26.00;75.40;;;;;;4984189;28;20415;-78
2022/08/05 00:45:23;;;;;;;;;;;26.00;75.40;;;;;;4960804;28;20261;-79
2022/08/05 00:47:50;;;;;;;;;;;26.00;75.40;;;;;;4981624;28;19933;-80
2022/08/05 00:50:17;;;;;;;;;;;26.00;75.40;;;;;;4978162;28;19969;-80
2022/08/05 00:52:44;;;;;;;;;;;26.00;75.50;;;;;;4982733;28;19934;-80
2022/08/05 00:55:11;;;;;;;;;;;25.90;75.50;;;;;;4975522;28;19993;-79
2022/08/05 00:57:38;;;;;;;;;;;25.90;75.50;;;;;;4985332;28;19933;-80
2022/08/05 01:00:05;;;;;;;;;;;25.90;75.60;;;;;;4976302;28;19937;-79
2022/08/05 01:02:33;;;;;;;;;;;25.80;75.50;;;;;;4980428;28;19926;-80
2022/08/05 01:05:00;;;;;;;;;;;25.80;75.60;;;;;;4962747;28;19934;-79
2022/08/05 01:07:27;;;;;;;;;;;25.80;75.60;;;;;;4978134;28;19957;-80
2022/08/05 01:09:54;;;;;;;;;;;25.80;75.80;;;;;;4974331;28;19937;-79
2022/08/05 01:12:21;;;;;;;;;;;25.80;75.90;;;;;;4978560;28;19927;-79
2022/08/05 01:14:50;;;;;;;;;;;25.70;75.80;;;;;;4981770;28;19934;-78
2022/08/05 01:17:21;;;;;;;;;;;25.70;75.90;;;;;;4980770;28;19930;-78
2022/08/05 01:19:51;;;;;;;;;;;25.60;75.90;;;;;;4975296;28;19930;-79
2022/08/05 01:22:25;;;;;;;;;;;25.60;75.90;;;;;;4982388;28;19950;-78
2022/08/05 01:24:57;;;;;;;;;;;25.60;76.00;;;;;;4978121;28;19926;-81
2022/08/05 01:27:29;;;;;;;;;;;25.60;76.10;;;;;;4980399;28;19957;-79
2022/08/05 01:30:01;;;;;;;;;;;25.60;76.20;;;;;;4979709;28;19934;-79
2022/08/05 01:32:30;;;;;;;;;;;25.50;76.20;;;;;;4976487;28;19926;-78
2022/08/05 01:34:58;;;;;;;;;;;25.50;76.30;;;;;;4977168;28;20371;-79
2022/08/05 01:37:29;;;;;;;;;;;25.50;76.40;;;;;;4980809;28;19937;-80
2022/08/05 01:39:58;;;;;;;;;;;25.40;76.30;;;;;;4982748;28;19925;-80
2022/08/05 01:42:25;;;;;;;;;;;25.40;76.40;;;;;;4976269;28;20463;-78
2022/08/05 01:44:55;;;;;;;;;;;25.40;77.20;;;;;;4979411;28;19949;-81
2022/08/05 01:47:23;;;;;;;;;;;25.40;76.50;;;;;;4974619;28;19940;-77
2022/08/05 01:49:52;;;;;;;;;;;25.30;76.60;;;;;;4980945;28;21419;-79
2022/08/05 01:52:19;;;;;;;;;;;25.30;76.70;;;;;;4973677;28;19948;-77
2022/08/05 01:54:47;;;;;;;;;;;25.30;76.80;;;;;;4978138;28;19930;-80
2022/08/05 01:57:18;;;;;;;;;;;25.30;76.90;;;;;;4980250;28;20347;-78
2022/08/05 01:59:46;;;;;;;;;;;25.20;76.80;;;;;;4978633;28;19996;-79
2022/08/05 02:02:13;;;;;;;;;;;25.20;76.70;;;;;;4976888;28;19961;-78
2022/08/05 02:04:42;;;;;;;;;;;25.20;76.80;;;;;;4981338;28;19958;-80
2022/08/05 02:07:09;;;;;;;;;;;25.20;76.80;;;;;;4981191;28;19926;-78
2022/08/05 02:09:36;;;;;;;;;;;25.20;76.90;;;;;;4975895;28;20006;-79
2022/08/05 02:12:06;;;;;;;;;;;25.10;76.90;;;;;;4984550;28;19940;-79
2022/08/05 02:14:34;;;;;;;;;;;25.10;77.00;;;;;;4983885;28;19938;-80
2022/08/05 02:17:03;;;;;;;;;;;25.10;77.00;;;;;;4985410;28;19937;-80
2022/08/05 02:19:32;;;;;;;;;;;25.00;76.80;;;;;;4981040;28;20126;-79
2022/08/05 02:22:02;;;;;;;;;;;25.00;76.90;;;;;;4981951;28;20001;-78
2022/08/05 02:24:35;;;;;;;;;;;25.00;76.80;;;;;;4982356;28;19934;-78
2022/08/05 02:27:03;;;;;;;;;;;25.00;76.80;;;;;;4987991;28;19936;-80
2022/08/05 02:29:30;;;;;;;;;;;25.00;76.90;;;;;;4981548;28;20017;-79
2022/08/05 02:31:57;;;;;;;;;;;;;;;;;;4986143;28;19957;-78
2022/08/05 02:34:27;;;;;;;;;;;24.90;76.30;;;;;;4981768;28;19964;-79
2022/08/05 02:36:55;;;;;;;;;;;24.90;77.00;;;;;;4987870;28;20087;-77
2022/08/05 02:39:24;;;;;;;;;;;24.80;76.80;;;;;;4984301;28;19975;-77
2022/08/05 02:41:52;;;;;;;;;;;24.90;77.00;;;;;;4970988;28;19926;-78
2022/08/05 02:44:19;;;;;;;;;;;24.80;76.80;;;;;;4985117;28;19945;-78
2022/08/05 02:46:47;;;;;;;;;;;24.70;76.80;;;;;;4990826;28;20416;-78
2022/08/05 02:49:15;;;;;;;;;;;24.70;76.80;;;;;;4988246;28;20408;-77
2022/08/05 02:51:42;;;;;;;;;;;24.70;76.90;;;;;;4989729;28;20201;-77
2022/08/05 02:54:10;;;;;;;;;;;24.70;76.90;;;;;;4985984;28;19932;-78
2022/08/05 02:56:38;;;;;;;;;;;24.70;77.10;;;;;;4984992;28;20432;-77
2022/08/05 02:59:05;;;;;;;;;;;24.60;76.20;;;;;;4987547;28;19934;-79
2022/08/05 03:01:33;;;;;;;;;;;24.60;76.90;;;;;;4986069;28;19932;-80
2022/08/05 03:04:02;;;;;;;;;;;24.60;77.00;;;;;;4980528;28;20218;-79
2022/08/05 03:06:29;;;;;;;;;;;24.60;76.90;;;;;;4983859;28;19962;-79
2022/08/05 03:08:56;;;;;;;;;;;24.60;76.90;;;;;;4987580;28;20372;-77
2022/08/05 03:11:24;;;;;;;;;;;24.50;78.40;;;;;;4982451;28;20416;-77
2022/08/05 03:13:53;;;;;;;;;;;24.50;79.90;;;;;;4988433;28;20427;-78
2022/08/05 03:16:20;;;;;;;;;;;24.50;76.90;;;;;;4970907;28;19997;-77
2022/08/05 03:18:47;;;;;;;;;;;24.50;76.70;;;;;;4981019;28;19988;-78
2022/08/05 03:21:13;;;;;;;;;;;24.40;76.70;;;;;;4986827;28;19956;-78
2022/08/05 03:23:41;;;;;;;;;;;24.40;76.80;;;;;;4982584;28;19933;-79
2022/08/05 03:26:08;;;;;;;;;;;24.40;76.90;;;;;;4984938;28;19933;-79
2022/08/05 03:28:36;;;;;;;;;;;24.40;77.00;;;;;;4981261;28;21337;-77
2022/08/05 03:31:04;;;;;;;;;;;24.30;76.90;;;;;;4985817;28;20513;-77
2022/08/05 03:33:31;;;;;;;;;;;24.30;77.00;;;;;;4984335;28;19934;-76
2022/08/05 03:35:58;;;;;;;;;;;24.30;77.30;;;;;;4990554;28;19956;-78
2022/08/05 03:38:26;;;;;;;;;;;24.20;77.20;;;;;;4981259;28;19945;-76
2022/08/05 03:40:53;;;;;;;;;;;24.20;77.50;;;;;;4988435;28;20399;-79
2022/08/05 03:43:20;;;;;;;;;;;24.20;77.50;;;;;;4966863;28;19926;-77
2022/08/05 03:45:46;;;;;;;;;;;24.20;77.50;;;;;;4981495;28;19930;-79
2022/08/05 03:48:15;;;;;;;;;;;24.20;77.50;;;;;;4978183;28;19933;-78
2022/08/05 03:50:43;;;;;;;;;;;24.20;77.50;;;;;;4982453;28;20384;-77
2022/08/05 03:53:12;;;;;;;;;;;24.20;77.50;;;;;;4982223;28;20407;-77
2022/08/05 03:55:44;;;;;;;;;;;24.10;77.60;;;;;;4982157;28;19934;-78
2022/08/05 03:58:12;;;;;;;;;;;24.10;77.70;;;;;;4986105;28;19926;-78
2022/08/05 04:00:39;;;;;;;;;;;24.80;78.50;;;;;;4980371;28;19993;-77
2022/08/05 04:03:07;;;;;;;;;;;25.10;93.90;;;;;;4982851;28;20780;-77
2022/08/05 04:05:36;;;;;;;;;;;24.10;77.00;;;;;;4980751;28;20334;-77
2022/08/05 04:08:03;;;;;;;;;;;24.00;77.40;;;;;;4987994;28;19934;-78
2022/08/05 04:10:30;;;;;;;;;;;24.00;77.40;;;;;;4973442;28;20597;-76
2022/08/05 04:12:57;;;;;;;;;;;24.00;77.40;;;;;;4963782;28;20029;-78
2022/08/05 04:15:27;;;;;;;;;;;24.00;77.40;;;;;;4981767;28;19926;-77
2022/08/05 04:17:54;;;;;;;;;;;24.00;77.30;;;;;;4984111;28;20107;-79
2022/08/05 04:20:22;;;;;;;;;;;23.90;77.30;;;;;;4977854;28;19953;-78
2022/08/05 04:22:50;;;;;;;;;;;23.90;77.20;;;;;;4981153;28;19957;-77
2022/08/05 04:25:17;;;;;;;;;;;23.90;77.20;;;;;;4984801;28;19933;-78
2022/08/05 04:27:44;;;;;;;;;;;23.90;77.20;;;;;;4981108;28;20040;-78
2022/08/05 04:30:11;;;;;;;;;;;23.90;76.70;;;;;;4985766;28;19929;-76
2022/08/05 04:32:38;;;;;;;;;;;23.80;77.10;;;;;;4979151;28;20415;-78
2022/08/05 04:35:05;;;;;;;;;;;23.80;77.20;;;;;;4985597;28;20380;-77
2022/08/05 04:37:32;;;;;;;;;;;;;;;;;;4981972;28;19936;-77
2022/08/05 04:40:03;;;;;;;;;;;23.80;76.90;;;;;;4975212;28;19933;-77
2022/08/05 04:42:31;;;;;;;;;;;23.80;77.60;;;;;;4969079;28;20396;-77
2022/08/05 04:44:58;;;;;;;;;;;23.80;77.50;;;;;;4979635;28;20008;-78
2022/08/05 04:47:25;;;;;;;;;;;23.70;77.60;;;;;;4976323;28;19954;-78
2022/08/05 04:49:51;;;;;;;;;;;23.70;77.70;;;;;;4976654;28;19941;-77
2022/08/05 04:52:18;;;;;;;;;;;23.70;77.90;;;;;;4974406;28;19954;-77
2022/08/05 04:54:45;;;;;;;;;;;23.70;77.90;;;;;;4983567;28;19949;-77
2022/08/05 04:57:13;;;;;;;;;;;23.60;77.90;;;;;;4980947;28;20438;-78
2022/08/05 04:59:40;;;;;;;;;;;23.70;78.00;;;;;;4974382;28;20454;-78
2022/08/05 05:02:07;;;;;;;;;;;23.60;77.90;;;;;;4964766;28;20021;-78
2022/08/05 05:04:34;;;;;;;;;;;23.60;78.10;;;;;;4978990;28;19938;-77
2022/08/05 05:07:01;;;;;;;;;;;23.60;78.20;;;;;;4978042;28;20032;-79
2022/08/05 05:09:28;;;;;;;;;;;23.60;78.40;;;;;;4974710;28;20315;-77
2022/08/05 05:11:55;;;;;;;;;;;;;;;;;;4974966;28;20024;-78
2022/08/05 05:14:23;;;;;;;;;;;23.50;78.10;;;;;;4958896;28;19929;-77
2022/08/05 05:16:51;;;;;;;;;;;23.50;78.70;;;;;;4972777;28;19929;-79
2022/08/05 05:19:18;;;;;;;;;;;23.50;78.80;;;;;;4968452;28;20036;-78
2022/08/05 05:21:45;;;;;;;;;;;23.50;78.80;;;;;;4967746;28;19930;-78
2022/08/05 05:24:13;;;;;;;;;;;23.50;78.90;;;;;;4969425;28;20282;-77
2022/08/05 05:26:39;;;;;;;;;;;23.50;79.00;;;;;;4966104;28;20589;-77
2022/08/05 05:29:06;;;;;;;;;;;23.40;79.10;;;;;;4972369;28;19926;-77
2022/08/05 05:31:34;;;;;;;;;;;23.40;79.40;;;;;;4964415;28;19993;-75
2022/08/05 05:34:01;;;;;;;;;;;23.40;79.50;;;;;;4966675;28;19941;-76
2022/08/05 05:36:28;;;;;;;;;;;23.40;79.70;;;;;;4962131;28;20481;-76
2022/08/05 05:38:55;;;;;;;;;;;23.40;79.90;;;;;;4964158;28;20576;-76
2022/08/05 05:41:22;;;;;;;;;;;23.40;80.10;;;;;;4958550;28;20504;-75
2022/08/05 05:43:49;;;;;;;;;;;;;;;;;;4962459;28;19934;-75
2022/08/05 05:46:16;;;;;;;;;;;23.30;79.60;;;;;;4975821;28;20356;-77
2022/08/05 05:48:45;;;;;;;;;;;23.30;80.20;;;;;;4975331;28;20013;-76
2022/08/05 05:51:17;;;;;;;;;;;23.30;80.40;;;;;;4945725;28;20239;-74
2022/08/05 05:53:44;;;;;;;;;;;23.30;80.50;;;;;;4972591;28;19972;-76
2022/08/05 05:56:11;;;;;;;;;;;23.30;80.50;;;;;;4967550;28;19930;-75
2022/08/05 05:58:38;;;;;;;;;;;23.30;80.60;;;;;;4963634;28;19974;-74
2022/08/05 06:01:04;;;;;;;;;;;23.30;80.60;;;;;;4970502;28;19973;-74
2022/08/05 06:03:31;;;;;;;;;;;23.30;80.80;;;;;;4956063;28;19993;-76
2022/08/05 06:05:59;;;;;;;;;;;23.30;80.80;;;;;;4962721;28;20372;-76
2022/08/05 06:08:26;;;;;;;;;;;23.20;80.70;;;;;;4969478;28;20060;-77
2022/08/05 06:10:53;;;;;;;;;;;23.20;80.80;;;;;;4973412;28;19933;-74
2022/08/05 06:13:20;;;;;;;;;;;23.20;81.00;;;;;;4978450;28;19930;-77
2022/08/05 06:15:47;;;;;;;;;;;23.20;81.10;;;;;;4976008;28;19930;-77
2022/08/05 06:18:13;;;;;;;;;;;23.20;81.20;;;;;;4977875;28;19941;-75
2022/08/05 06:20:40;;;;;;;;;;;23.20;81.20;;;;;;4952982;28;19926;-78
2022/08/05 06:23:08;;;;;;;;;;;23.20;81.20;;;;;;4975603;28;19929;-77
2022/08/05 06:25:35;;;;;;;;;;;23.20;81.40;;;;;;4982476;28;19973;-76
2022/08/05 06:28:02;;;;;;;;;;;23.20;81.50;;;;;;4978958;28;19929;-76
2022/08/05 06:30:29;;;;;;;;;;;23.20;81.60;;;;;;4977130;28;21669;-76
2022/08/05 06:32:56;;;;;;;;;;;23.10;81.60;;;;;;4975802;28;19926;-76
2022/08/05 06:35:23;;;;;;;;;;;23.20;81.70;;;;;;4975369;28;19938;-76
2022/08/05 06:37:49;;;;;;;;;;;23.20;81.70;;;;;;4981132;28;19996;-76
2022/08/05 06:40:18;;;;;;;;;;;23.10;81.70;;;;;;4977248;28;20451;-77
2022/08/05 06:42:45;;;;;;;;;;;23.20;82.00;;;;;;4979119;28;19934;-77
2022/08/05 06:45:12;;;;;;;;;;;23.20;82.00;;;;;;4960093;28;19973;-75
2022/08/05 06:47:38;;;;;;;;;;;23.10;82.00;;;;;;4975408;28;19926;-75
2022/08/05 06:50:06;;;;;;;;;;;23.10;82.30;;;;;;4972870;28;20016;-76
2022/08/05 06:52:32;;;;;;;;;;;23.10;82.30;;;;;;4980846;28;19926;-76
2022/08/05 06:54:59;;;;;;;;;;;23.10;82.30;;;;;;4969726;28;20053;-76
2022/08/05 06:57:27;;;;;;;;;;;23.10;82.20;;;;;;4971766;28;19926;-75
2022/08/05 06:59:55;;;;;;;;;;;23.10;83.00;;;;;;4965661;28;20427;-75
2022/08/05 07:02:24;;;;;;;;;;;23.10;82.50;;;;;;4979688;28;20432;-77
2022/08/05 07:04:52;;;;;;;;;;;23.10;82.40;;;;;;4961649;28;19926;-77
2022/08/05 07:07:20;;;;;;;;;;;23.10;82.70;;;;;;4978960;28;19925;-76
2022/08/05 07:09:48;;;;;;;;;;;23.10;82.60;;;;;;4982160;28;19934;-76
2022/08/05 07:17:42;;;;;;;;;;;23.20;83.30;;;;;;4979188;28;19937;-77
2022/08/05 07:20:09;;;;;;;;;;;23.20;83.20;;;;;;4977380;28;19938;-76
2022/08/05 07:22:37;;;;;;;;;;;23.20;83.00;;;;;;4978677;28;19926;-77
2022/08/05 07:25:04;;;;;;;;;;;23.20;82.90;;;;;;4979419;28;20742;-76
2022/08/05 07:27:32;;;;;;;;;;;23.20;82.80;;;;;;4982473;28;20033;-77
2022/08/05 07:30:01;;;;;;;;;;;23.20;82.60;;;;;;4975385;28;19930;-76
2022/08/05 07:32:28;;;;;;;;;;;23.20;82.60;;;;;;4977985;28;20032;-77
2022/08/05 07:34:56;;;;;;;;;;;23.20;82.50;;;;;;4962814;28;19929;-78
2022/08/05 07:37:24;;;;;;;;;;;23.20;82.50;;;;;;4980264;28;20035;-78
2022/08/05 07:39:54;;;;;;;;;;;23.30;82.40;;;;;;4982566;28;19936;-76
2022/08/05 07:42:21;;;;;;;;;;;23.30;82.40;;;;;;4975510;28;19985;-76
2022/08/05 07:44:48;;;;;;;;;;;23.30;82.10;;;;;;4979894;28;19930;-77
2022/08/05 07:47:16;;;;;;;;;;;23.30;82.00;;;;;;4977415;28;19930;-76
2022/08/05 07:49:43;;;;;;;;;;;23.30;81.90;;;;;;4974956;28;20024;-76
2022/08/05 07:52:10;;;;;;;;;;;23.30;81.90;;;;;;4960496;28;19948;-75
2022/08/05 07:54:37;;;;;;;;;;;23.30;81.90;;;;;;4983386;28;20027;-76
2022/08/05 07:57:04;;;;;;;;;;;23.20;81.80;;;;;;4974339;28;19933;-75
2022/08/05 07:59:31;;;;;;;;;;;23.30;82.00;;;;;;4974576;28;19926;-76
2022/08/05 08:01:58;;;;;;;;;;;23.30;82.10;;;;;;4963483;28;20455;-75
2022/08/05 08:04:26;;;;;;;;;;;23.30;82.10;;;;;;4981069;28;19926;-76
2022/08/05 08:06:53;;;;;;;;;;;23.30;82.00;;;;;;4966388;28;19925;-76
2022/08/05 08:09:19;;;;;;;;;;;23.30;81.90;;;;;;4975839;28;19925;-76
2022/08/05 08:11:46;;;;;;;;;;;23.30;81.90;;;;;;4975774;28;19933;-76
2022/08/05 08:14:13;;;;;;;;;;;23.30;81.70;;;;;;4978674;28;20601;-76
2022/08/05 08:16:40;;;;;;;;;;;23.40;81.60;;;;;;4981228;28;19930;-75
2022/08/05 08:19:08;;;;;;;;;;;23.30;81.50;;;;;;4986991;28;19926;-77
2022/08/05 08:21:36;;;;;;;;;;;23.40;81.40;;;;;;4981087;28;20651;-76
2022/08/05 08:24:04;;;;;;;;;;;23.40;81.30;;;;;;4975719;28;20408;-77
2022/08/05 08:26:31;;;;;;;;;;;23.40;81.20;;;;;;4980198;28;20215;-77
2022/08/05 08:28:59;;;;;;;;;;;23.40;81.00;;;;;;4970772;28;19938;-76
2022/08/05 08:31:26;;;;;;;;;;;23.40;80.70;;;;;;4972017;28;19980;-76
2022/08/05 08:33:53;;;;;;;;;;;23.40;80.50;;;;;;4973274;28;19964;-75
2022/08/05 08:36:20;;;;;;;;;;;23.40;80.00;;;;;;4972814;28;20005;-76
2022/08/05 08:38:48;;;;;;;;;;;23.40;80.10;;;;;;4956463;28;19985;-75
2022/08/05 08:41:15;;;;;;;;;;;23.40;80.00;;;;;;4948451;28;19941;-75
2022/08/05 08:43:44;;;;;;;;;;;23.40;80.20;;;;;;4981482;28;19932;-76
2022/08/05 08:46:11;;;;;;;;;;;23.40;80.20;;;;;;4985922;28;20013;-76
2022/08/05 08:48:41;;;;;;;;;;;23.50;80.40;;;;;;4978796;28;19945;-76
2022/08/05 08:51:09;;;;;;;;;;;23.50;80.50;;;;;;4983340;28;20194;-76
2022/08/05 08:53:37;;;;;;;;;;;23.50;80.60;;;;;;4968025;28;19926;-76
2022/08/05 08:56:05;;;;;;;;;;;23.50;80.70;;;;;;4985324;28;19925;-75
2022/08/05 08:58:32;;;;;;;;;;;23.40;80.80;;;;;;4979030;28;19929;-77
2022/08/05 09:00:59;;;;;;;;;;;23.50;80.80;;;;;;4981653;28;19929;-77
2022/08/05 09:03:26;;;;;;;;;;;23.50;80.80;;;;;;4982694;28;19926;-77
2022/08/05 09:05:53;;;;;;;;;;;23.50;81.00;;;;;;4976533;28;19969;-77
2022/08/05 09:08:22;;;;;;;;;;;23.50;81.20;;;;;;4981821;28;19972;-77
2022/08/05 09:10:50;;;;;;;;;;;23.50;81.30;;;;;;4980876;28;20583;-77
2022/08/05 09:13:18;;;;;;;;;;;23.50;81.10;;;;;;4978889;28;20034;-76
2022/08/05 09:15:45;;;;;;;;;;;23.50;81.00;;;;;;4972730;28;20035;-76
2022/08/05 09:18:12;;;;;;;;;;;23.60;80.80;;;;;;4982091;28;19933;-75
2022/08/05 09:20:40;;;;;;;;;;;23.60;80.70;;;;;;4985464;28;20017;-76
2022/08/05 09:23:09;;;;;;;;;;;23.60;80.70;;;;;;4979968;28;19926;-77
2022/08/05 09:25:38;;;;;;;;;;;23.60;80.60;;;;;;4981605;28;20054;-76
2022/08/05 09:28:12;;;;;;;;;;;23.60;80.20;;;;;;4980249;28;19968;-76
2022/08/05 09:30:41;;;;;;;;;;;23.60;80.20;;;;;;4978355;28;19985;-76
2022/08/05 09:33:08;;;;;;;;;;;23.60;80.30;;;;;;4980147;28;19930;-75
2022/08/05 09:35:35;;;;;;;;;;;23.60;80.10;;;;;;4975679;28;19961;-76
2022/08/05 09:38:06;;;;;;;;;;;23.60;79.70;;;;;;4981860;28;20405;-76
2022/08/05 09:40:33;;;;;;;;;;;23.60;79.60;;;;;;4980920;28;19933;-76
2022/08/05 09:43:01;;;;;;;;;;;23.60;79.90;;;;;;4974619;28;20485;-76
2022/08/05 09:45:38;;;;;;;;;;;23.60;79.90;;;;;;4979908;28;20297;-75
2022/08/05 09:48:24;;;;;;;;;;;23.70;79.90;;;;;;4978238;28;19956;-76
2022/08/05 09:50:51;;;;;;;;;;;23.70;80.00;;;;;;4981091;28;20967;-75
2022/08/05 09:53:18;;;;;;;;;;;23.70;79.90;;;;;;4980157;28;19930;-75
2022/08/05 09:55:45;;;;;;;;;;;23.70;80.00;;;;;;4982198;28;19926;-77
2022/08/05 09:58:13;;;;;;;;;;;23.70;79.60;;;;;;4984597;28;19957;-75
2022/08/05 10:00:51;;;;;;;;;;;23.70;79.50;;;;;;4980190;28;20431;-76
2022/08/05 10:03:18;;;;;;;;;;;23.70;79.60;;;;;;4982655;28;19930;-76
2022/08/05 10:05:46;;;;;;;;;;;23.70;79.70;;;;;;4983644;28;20278;-76
2022/08/05 10:08:13;;;;;;;;;;;23.70;79.60;;;;;;4982693;28;19926;-76
2022/08/05 10:10:47;;;;;;;;;;;23.70;79.60;;;;;;4977597;28;19933;-75
2022/08/05 10:13:26;;;;;;;;;;;23.70;79.40;;;;;;4982879;28;19926;-75
2022/08/05 10:15:54;;;;;;;;;;;23.70;79.50;;;;;;4981881;28;19932;-76
2022/08/05 10:18:21;;;;;;;;;;;23.70;79.50;;;;;;4979280;28;20690;-77
2022/08/05 10:20:51;;;;;;;;;;;23.80;79.60;;;;;;4980273;28;19926;-76
2022/08/05 10:23:19;;;;;;;;;;;23.80;79.60;;;;;;4975829;28;19934;-75
2022/08/05 10:25:46;;;;;;;;;;;23.80;79.20;;;;;;4972689;28;20533;-77
2022/08/05 10:28:13;;;;;;;;;;;23.80;79.30;;;;;;4969869;28;20405;-76
2022/08/05 10:30:40;;;;;;;;;;;23.80;79.40;;;;;;4964111;28;20324;-75
2022/08/05 10:33:07;;;;;;;;;;;23.80;79.40;;;;;;4974126;28;19965;-75
2022/08/05 10:35:35;;;;;;;;;;;23.80;79.40;;;;;;4980004;28;20328;-75
2022/08/05 10:38:03;;;;;;;;;;;23.90;79.30;;;;;;4985154;28;19934;-76
2022/08/05 10:40:33;;;;;;;;;;;23.90;79.40;;;;;;4980146;28;20013;-75
2022/08/05 10:43:07;;;;;;;;;;;23.90;79.50;;;;;;4979131;28;20000;-75
2022/08/05 10:45:42;;;;;;;;;;;23.90;79.60;;;;;;4964093;28;19930;-75
2022/08/05 10:48:28;;;;;;;;;;;23.90;79.60;;;;;;4973990;28;20343;-75
2022/08/05 10:51:00;;;;;;;;;;;23.90;79.60;;;;;;4958044;28;19941;-75
2022/08/05 10:53:37;;;;;;;;;;;23.90;79.60;;;;;;4976793;28;19925;-76
2022/08/05 10:56:05;;;;;;;;;;;24.00;79.90;;;;;;4974148;28;20013;-76
2022/08/05 10:58:31;;;;;;;;;;;24.00;79.90;;;;;;4977752;28;19932;-76
2022/08/05 11:00:59;;;;;;;;;;;24.00;79.90;;;;;;4976452;28;19934;-75
2022/08/05 11:03:26;;;;;;;;;;;24.10;80.10;;;;;;4989912;23;19969;-82
2022/08/05 11:06:06;;;;;;;;;;;24.10;80.10;;;;;;4986518;28;20341;-82
2022/08/05 11:08:33;;;;;;;;;;;24.10;80.20;;;;;;4991759;28;19953;-82
2022/08/05 11:11:14;;;;;;;;;;;24.10;80.20;;;;;;4984263;28;20360;-82
2022/08/05 11:13:43;;;;;;;;;;;24.10;80.20;;;;;;4986239;28;19984;-83
2022/08/05 11:16:23;;;;;;;;;;;24.10;80.30;;;;;;4984816;28;19981;-82
2022/08/05 11:19:05;;;;;;;;;;;24.20;80.40;;;;;;4981656;28;20336;-83
2022/08/05 11:21:32;;;;;;;;;;;24.20;80.40;;;;;;4992033;28;19980;-83
2022/08/05 11:24:07;;;;;;;;;;;24.30;80.60;;;;;;4991324;28;20335;-83
2022/08/05 11:26:34;;;;;;;;;;;24.20;80.50;;;;;;4979931;28;19938;-84
2022/08/05 11:29:03;;;;;;;;;;;24.30;80.10;;;;;;4979543;28;19929;-84
2022/08/05 11:31:31;;;;;;;;;;;24.40;80.30;;;;;;4981976;28;20377;-83
2022/08/05 11:33:59;;;;;;;;;;;24.30;80.10;;;;;;4984948;28;20392;-83
2022/08/05 11:36:46;;;;;;;;;;;24.40;80.30;;;;;;4982092;28;19930;-84
2022/08/05 11:39:15;;;;;;;;;;;24.40;80.30;;;;;;4981556;28;19984;-83
2022/08/05 11:41:49;;;;;;;;;;;24.40;80.30;;;;;;4980824;28;19941;-83
2022/08/05 11:44:20;;;;;;;;;;;24.60;79.10;;;;;;4981022;28;19949;-83
2022/08/05 11:46:47;;;;;;;;;;;24.70;78.70;;;;;;4983327;28;19934;-83
2022/08/05 11:49:15;;;;;;;;;;;24.70;78.90;;;;;;4982149;28;20016;-83
2022/08/05 11:51:43;;;;;;;;;;;24.70;78.10;;;;;;4980403;28;20419;-82
2022/08/05 11:54:11;;;;;;;;;;;24.80;77.60;;;;;;4987513;28;20299;-83
2022/08/05 11:56:47;;;;;;;;;;;24.90;77.50;;;;;;4985430;28;19957;-82
2022/08/05 11:59:21;;;;;;;;;;;24.90;78.20;;;;;;4985486;28;19981;-82
2022/08/05 12:01:55;;;;;;;;;;;24.90;78.70;;;;;;4982079;28;19930;-82
2022/08/05 12:04:22;;;;;;;;;;;24.90;79.30;;;;;;4981405;28;19933;-82
2022/08/05 12:06:49;;;;;;;;;;;24.90;79.40;;;;;;4990055;28;19930;-82
2022/08/05 12:09:17;;;;;;;;;;;24.90;79.60;;;;;;4982563;28;20023;-82
2022/08/05 12:11:44;;;;;;;;;;;24.90;79.80;;;;;;4990553;28;19933;-82
2022/08/05 12:14:11;;;;;;;;;;;24.90;79.80;;;;;;4987934;28;20641;-82
2022/08/05 12:16:40;;;;;;;;;;;24.90;79.90;;;;;;4987968;28;19940;-82
2022/08/05 12:19:08;;;;;;;;;;;25.00;80.00;;;;;;4982640;28;19929;-82
2022/08/05 12:21:36;;;;;;;;;;;25.00;80.10;;;;;;4984063;28;20368;-82
2022/08/05 12:24:04;;;;;;;;;;;25.00;80.20;;;;;;4981713;28;19933;-82
2022/08/05 12:26:31;;;;;;;;;;;25.10;80.40;;;;;;4987917;28;19957;-83
2022/08/05 12:28:58;;;;;;;;;;;25.10;80.30;;;;;;4989293;28;20347;-82
2022/08/05 12:31:25;;;;;;;;;;;25.10;80.20;;;;;;4981458;28;20289;-82
2022/08/05 12:33:53;;;;;;;;;;;25.20;80.30;;;;;;4983302;28;19926;-82
2022/08/05 12:36:22;;;;;;;;;;;;;;;;;;4995997;28;19925;-82
2022/08/05 12:38:49;;;;;;;;;;;25.20;79.70;;;;;;4985308;28;19973;-82
2022/08/05 12:41:15;;;;;;;;;;;25.20;80.30;;;;;;4980324;28;20292;-82
2022/08/05 12:43:51;;;;;;;;;;;25.30;80.40;;;;;;4982028;28;19925;-82
2022/08/05 12:46:22;;;;;;;;;;;25.30;80.20;;;;;;4975004;28;19930;-82
2022/08/05 12:48:57;;;;;;;;;;;25.30;80.10;;;;;;4982681;28;19989;-82
2022/08/05 12:51:26;;;;;;;;;;;25.40;79.40;;;;;;4988482;28;20021;-82
2022/08/05 12:53:58;;;;;;;;;;;25.50;79.10;;;;;;4985613;28;20324;-82
2022/08/05 12:56:25;;;;;;;;;;;25.50;79.20;;;;;;4985073;28;19996;-82
2022/08/05 12:59:10;;;;;;;;;;;25.60;79.10;;;;;;4984485;28;19926;-82
2022/08/05 13:01:37;;;;;;;;;;;25.60;78.80;;;;;;4983342;28;19957;-82
2022/08/05 13:04:05;;;;;;;;;;;25.70;78.90;;;;;;4986019;28;19929;-82
2022/08/05 13:06:32;;;;;;;;;;;25.70;79.00;;;;;;4981301;28;19936;-82
2022/08/05 13:09:05;;;;;;;;;;;25.80;78.50;;;;;;4984182;28;20416;-82
2022/08/05 13:11:32;;;;;;;;;;;25.80;78.50;;;;;;4986726;28;19949;-82
2022/08/05 13:13:59;;;;;;;;;;;25.90;78.60;;;;;;4983528;28;19973;-82
2022/08/05 13:16:26;;;;;;;;;;;26.00;78.80;;;;;;4990084;28;20308;-82
2022/08/05 13:18:53;;;;;;;;;;;26.00;79.20;;;;;;4980667;28;19961;-82
2022/08/05 13:21:21;;;;;;;;;;;26.00;79.30;;;;;;4987104;28;19989;-82
2022/08/05 13:23:48;;;;;;;;;;;26.00;79.40;;;;;;4978459;28;19969;-82
2022/08/05 13:26:15;;;;;;;;;;;26.10;78.70;;;;;;4986085;28;19933;-82
2022/08/05 13:28:41;;;;;;;;;;;26.10;78.90;;;;;;4984681;28;19926;-82
2022/08/05 13:31:08;;;;;;;;;;;26.20;78.60;;;;;;4983445;28;20620;-82
2022/08/05 13:33:35;;;;;;;;;;;26.20;78.10;;;;;;4989168;28;19930;-82
2022/08/05 13:36:04;;;;;;;;;;;;;;;;;;4985905;28;20480;-82
2022/08/05 13:38:33;;;;;;;;;;;26.30;78.40;;;;;;4987865;28;20028;-82
2022/08/05 13:40:59;;;;;;;;;;;26.40;78.40;;;;;;4980113;28;20022;-82
2022/08/05 13:43:26;;;;;;;;;;;26.40;78.70;;;;;;4987210;28;19926;-82
2022/08/05 13:45:53;;;;;;;;;;;26.40;78.80;;;;;;4988430;28;20401;-82
2022/08/05 13:48:20;;;;;;;;;;;26.50;79.10;;;;;;4978961;28;20026;-82
2022/08/05 13:50:47;;;;;;;;;;;26.60;79.30;;;;;;4983469;28;19933;-82
2022/08/05 13:53:14;;;;;;;;;;;26.60;79.50;;;;;;4982843;28;19992;-82
2022/08/05 13:55:42;;;;;;;;;;;26.60;79.40;;;;;;4982720;28;19961;-82
2022/08/05 13:58:09;;;;;;;;;;;26.70;79.50;;;;;;4979621;28;19929;-82
2022/08/05 14:00:36;;;;;;;;;;;26.70;79.40;;;;;;4980512;28;19932;-82
2022/08/05 14:03:03;;;;;;;;;;;26.80;79.50;;;;;;4980158;28;19934;-82
2022/08/05 14:05:29;;;;;;;;;;;26.80;79.60;;;;;;4982986;28;19953;-83
2022/08/05 14:07:56;;;;;;;;;;;26.80;79.50;;;;;;4980582;28;19926;-82
2022/08/05 14:10:24;;;;;;;;;;;26.90;79.60;;;;;;4982191;28;20226;-82
2022/08/05 14:12:52;;;;;;;;;;;27.00;79.70;;;;;;4989583;28;19926;-82
2022/08/05 14:15:19;;;;;;;;;;;27.00;79.60;;;;;;4983385;28;19934;-82
2022/08/05 14:17:46;;;;;;;;;;;27.00;79.60;;;;;;4982573;28;19930;-82
2022/08/05 14:20:14;;;;;;;;;;;27.10;79.80;;;;;;4985604;28;19965;-82
2022/08/05 14:22:42;;;;;;;;;;;27.20;79.70;;;;;;4984582;28;19979;-82
2022/08/05 14:25:10;;;;;;;;;;;27.20;79.60;;;;;;4980743;28;19929;-82
2022/08/05 14:27:36;;;;;;;;;;;27.30;79.70;;;;;;4985934;28;19932;-81
2022/08/05 14:30:05;;;;;;;;;;;27.30;79.60;;;;;;4988154;28;19933;-82